createdAt,value
2023-03-06T00:08:55.766Z,6.00
2023-03-06T00:19:34.232Z,5.70
2023-03-06T00:41:55.341Z,5.90
2023-03-06T00:52:23.418Z,6.10
2023-03-06T01:02:46.538Z,5.80
2023-03-06T01:13:08.721Z,5.80
2023-03-06T01:23:32.083Z,6.00
2023-03-06T01:33:54.169Z,6.00
2023-03-06T01:44:17.319Z,6.00
2023-03-06T01:54:43.351Z,6.10
2023-03-06T02:05:08.936Z,6.00
2023-03-06T02:15:31.348Z,6.10
2023-03-06T02:25:55.114Z,6.20
2023-03-06T02:36:17.596Z,6.40
2023-03-06T02:46:40.994Z,6.50
2023-03-06T02:57:02.578Z,6.50
2023-03-06T03:07:27.165Z,6.60
2023-03-06T03:17:49.057Z,6.80
2023-03-06T03:28:11.978Z,6.90
2023-03-06T03:38:35.403Z,6.90
2023-03-06T03:48:58.407Z,6.90
2023-03-06T03:59:21.480Z,7.00
2023-03-06T04:09:56.548Z,7.10
2023-03-06T04:20:21.134Z,7.20
2023-03-06T04:30:44.956Z,7.10
2023-03-06T04:41:07.085Z,7.00
2023-03-06T04:51:30.580Z,6.90
2023-03-06T05:01:52.389Z,6.80
2023-03-06T05:12:16.471Z,6.60
2023-03-06T05:22:39.339Z,6.50
2023-03-06T05:33:02.502Z,6.40
2023-03-06T05:43:24.237Z,6.20
2023-03-06T05:53:47.155Z,6.20
2023-03-06T06:04:08.961Z,6.10
2023-03-06T06:14:33.864Z,6.00
2023-03-06T06:24:55.567Z,6.00
2023-03-06T06:35:19.626Z,6.00
2023-03-06T06:45:42.835Z,6.00
2023-03-06T06:56:06.597Z,6.00
2023-03-06T07:06:27.980Z,6.00
2023-03-06T07:16:51.057Z,6.00
2023-03-06T07:27:12.531Z,5.80
2023-03-06T07:37:35.545Z,5.90
2023-03-06T07:47:57.493Z,5.90
2023-03-06T07:58:20.450Z,6.00
2023-03-06T08:08:44.441Z,6.20
2023-03-06T08:19:07.400Z,6.00
2023-03-06T08:29:30.637Z,6.40
2023-03-06T08:39:54.924Z,6.40
2023-03-06T08:50:16.857Z,6.30
2023-03-06T09:00:40.101Z,6.30
2023-03-06T09:11:01.729Z,6.20
2023-03-06T09:21:25.092Z,6.10
2023-03-06T09:31:46.960Z,6.10
2023-03-06T09:42:15.102Z,6.20
2023-03-06T09:52:44.578Z,5.90
2023-03-06T10:03:18.892Z,5.90
2023-03-06T10:13:44.811Z,6.00
2023-03-06T10:24:21.122Z,6.00
2023-03-06T10:34:44.114Z,5.90
2023-03-06T10:45:13.684Z,6.20
2023-03-06T10:55:36.606Z,6.10
2023-03-06T11:06:05.245Z,6.40
2023-03-06T11:16:30.347Z,6.20
2023-03-06T11:26:57.252Z,6.40
2023-03-06T11:37:28.784Z,6.30
2023-03-06T11:48:00.065Z,6.50
2023-03-06T11:58:58.174Z,6.70
2023-03-06T12:09:40.413Z,6.60
2023-03-06T12:20:23.924Z,6.70
2023-03-06T12:31:03.144Z,7.10
2023-03-06T12:41:35.984Z,7.30
2023-03-06T12:52:01.875Z,7.00
2023-03-06T13:02:52.809Z,7.80
2023-03-06T13:13:33.360Z,7.80
2023-03-06T13:24:05.628Z,7.70
2023-03-06T13:34:36.646Z,7.70
2023-03-06T13:45:06.740Z,8.40
2023-03-06T13:55:37.185Z,8.20
2023-03-06T14:05:59.314Z,8.00
2023-03-06T14:16:24.823Z,7.80
2023-03-06T14:26:49.613Z,8.50
2023-03-06T14:37:21.962Z,8.40
2023-03-06T14:47:44.040Z,8.00
2023-03-06T14:58:12.908Z,8.10
2023-03-06T15:08:39.136Z,8.10
2023-03-06T15:19:03.991Z,8.30
2023-03-06T15:29:25.885Z,8.50
2023-03-06T15:40:06.491Z,8.80
2023-03-06T15:50:30.206Z,8.80
2023-03-06T16:00:53.453Z,8.40
2023-03-06T16:11:17.557Z,7.50
2023-03-06T16:21:40.497Z,7.20
2023-03-06T16:32:02.655Z,6.80
2023-03-06T16:42:25.353Z,6.50
2023-03-06T16:53:04.014Z,6.00
2023-03-06T17:03:28.601Z,5.70
2023-03-06T17:13:55.187Z,5.50
2023-03-06T17:24:20.852Z,5.30
2023-03-06T17:34:43.826Z,5.10
2023-03-06T17:45:11.115Z,4.80
2023-03-06T17:55:32.993Z,4.70
2023-03-06T18:06:49.057Z,4.60
2023-03-06T18:17:16.104Z,4.40
2023-03-06T18:27:39.781Z,4.30
2023-03-06T18:38:05.047Z,4.20
2023-03-06T18:48:31.832Z,4.10
2023-03-06T18:58:57.343Z,4.20
2023-03-06T19:32:27.127Z,3.80
2023-03-06T19:42:49.923Z,3.70
2023-03-06T19:53:15.973Z,3.70
2023-03-06T20:03:46.120Z,3.80
2023-03-06T20:14:33.365Z,3.70
2023-03-06T20:25:10.779Z,3.60
2023-03-06T20:36:05.704Z,3.60
2023-03-06T20:46:52.098Z,3.70
2023-03-06T20:57:15.512Z,3.70
2023-03-06T21:07:37.307Z,3.70
2023-03-06T21:18:01.210Z,3.60
2023-03-06T21:28:44.049Z,3.50
2023-03-06T21:39:08.471Z,3.50
2023-03-06T21:49:30.696Z,3.50
2023-03-06T21:59:54.076Z,3.40
2023-03-06T22:10:15.962Z,3.60
2023-03-06T22:20:40.438Z,3.50
2023-03-06T22:31:07.024Z,3.30
2023-03-06T22:41:31.468Z,3.30
2023-03-06T22:51:53.122Z,3.10
2023-03-06T23:02:16.776Z,2.80
2023-03-06T23:12:41.532Z,2.90
2023-03-06T23:23:23.851Z,3.00
2023-03-06T23:33:45.651Z,3.30
2023-03-06T23:44:08.805Z,3.40
2023-03-06T23:54:30.625Z,3.80
